sensor_id;sensor_type;location;lat;lon;timestamp;pressure;altitude;pressure_sealevel;temperature;humidity
41800;BME280;27468;47.460;19.034;2023-07-30T00:01:24;99952.78;;;21.43;77.65
41800;BME280;27468;47.460;19.034;2023-07-30T00:03:49;99950.22;;;21.41;77.75
41800;BME280;27468;47.460;19.034;2023-07-30T00:06:15;99967.47;;;21.50;77.57
41800;BME280;27468;47.460;19.034;2023-07-30T00:08:40;99934.06;;;21.30;77.24
41800;BME280;27468;47.460;19.034;2023-07-30T00:11:06;99922.03;;;21.23;76.59
41800;BME280;27468;47.460;19.034;2023-07-30T00:13:31;99944.66;;;21.32;76.42
41800;BME280;27468;47.460;19.034;2023-07-30T00:15:56;99971.00;;;21.51;75.73
41800;BME280;27468;47.460;19.034;2023-07-30T00:18:22;99919.56;;;21.20;75.28
41800;BME280;27468;47.460;19.034;2023-07-30T00:20:47;99963.72;;;21.40;73.65
41800;BME280;27468;47.460;19.034;2023-07-30T00:23:13;99924.81;;;21.34;73.96
41800;BME280;27468;47.460;19.034;2023-07-30T00:25:38;99961.56;;;21.58;73.69
41800;BME280;27468;47.460;19.034;2023-07-30T00:28:03;99903.06;;;21.26;73.46
41800;BME280;27468;47.460;19.034;2023-07-30T00:30:29;99950.94;;;21.56;72.91
41800;BME280;27468;47.460;19.034;2023-07-30T00:32:54;99923.69;;;21.50;72.50
41800;BME280;27468;47.460;19.034;2023-07-30T00:35:19;99923.47;;;21.53;72.09
41800;BME280;27468;47.460;19.034;2023-07-30T00:37:45;99913.06;;;21.48;72.05
41800;BME280;27468;47.460;19.034;2023-07-30T00:40:11;99901.81;;;21.43;71.21
41800;BME280;27468;47.460;19.034;2023-07-30T00:42:37;99917.44;;;21.62;68.99
41800;BME280;27468;47.460;19.034;2023-07-30T00:45:03;99911.53;;;21.69;67.57
41800;BME280;27468;47.460;19.034;2023-07-30T00:47:28;99886.22;;;21.61;66.58
41800;BME280;27468;47.460;19.034;2023-07-30T00:49:54;99908.69;;;21.84;65.93
41800;BME280;27468;47.460;19.034;2023-07-30T00:52:21;99937.50;;;22.05;65.87
41800;BME280;27468;47.460;19.034;2023-07-30T00:54:48;99937.25;;;22.08;65.73
41800;BME280;27468;47.460;19.034;2023-07-30T00:57:14;99938.88;;;22.11;65.62
41800;BME280;27468;47.460;19.034;2023-07-30T00:59:40;99893.13;;;22.00;65.74
41800;BME280;27468;47.460;19.034;2023-07-30T01:02:06;99904.19;;;22.08;65.85
41800;BME280;27468;47.460;19.034;2023-07-30T01:04:32;99864.16;;;21.81;65.62
41800;BME280;27468;47.460;19.034;2023-07-30T01:06:57;99924.63;;;22.22;65.88
41800;BME280;27468;47.460;19.034;2023-07-30T01:09:23;99881.06;;;21.94;66.35
41800;BME280;27468;47.460;19.034;2023-07-30T01:11:51;99901.28;;;22.11;66.41
41800;BME280;27468;47.460;19.034;2023-07-30T01:14:16;99923.72;;;22.10;66.60
41800;BME280;27468;47.460;19.034;2023-07-30T01:16:44;99934.41;;;22.23;66.39
41800;BME280;27468;47.460;19.034;2023-07-30T01:19:09;99889.41;;;22.02;66.16
41800;BME280;27468;47.460;19.034;2023-07-30T01:21:36;99888.31;;;22.05;65.95
41800;BME280;27468;47.460;19.034;2023-07-30T01:24:02;99921.94;;;22.22;66.36
41800;BME280;27468;47.460;19.034;2023-07-30T01:26:32;99903.72;;;22.14;66.64
41800;BME280;27468;47.460;19.034;2023-07-30T01:29:00;99850.78;;;21.92;67.20
41800;BME280;27468;47.460;19.034;2023-07-30T01:31:30;99901.84;;;22.27;67.33
41800;BME280;27468;47.460;19.034;2023-07-30T01:33:56;99885.09;;;22.24;66.66
41800;BME280;27468;47.460;19.034;2023-07-30T01:36:22;99841.78;;;21.93;67.29
41800;BME280;27468;47.460;19.034;2023-07-30T01:38:50;99861.91;;;21.99;67.46
41800;BME280;27468;47.460;19.034;2023-07-30T01:41:16;99885.69;;;22.16;67.96
41800;BME280;27468;47.460;19.034;2023-07-30T01:43:41;99887.16;;;22.20;68.24
41800;BME280;27468;47.460;19.034;2023-07-30T01:46:07;99860.53;;;22.17;68.08
41800;BME280;27468;47.460;19.034;2023-07-30T01:48:32;99815.28;;;21.89;68.10
41800;BME280;27468;47.460;19.034;2023-07-30T01:50:57;99870.06;;;22.21;68.50
41800;BME280;27468;47.460;19.034;2023-07-30T01:53:23;99819.91;;;21.87;68.45
41800;BME280;27468;47.460;19.034;2023-07-30T01:55:48;99820.75;;;21.87;68.18
41800;BME280;27468;47.460;19.034;2023-07-30T01:58:14;99872.84;;;22.08;68.79
41800;BME280;27468;47.460;19.034;2023-07-30T02:00:40;99822.31;;;21.79;69.03
41800;BME280;27468;47.460;19.034;2023-07-30T02:03:05;99822.06;;;21.82;68.71
41800;BME280;27468;47.460;19.034;2023-07-30T02:05:30;99866.59;;;22.08;69.00
41800;BME280;27468;47.460;19.034;2023-07-30T02:07:56;99873.69;;;22.09;68.97
41800;BME280;27468;47.460;19.034;2023-07-30T02:10:23;99888.47;;;22.15;69.03
41800;BME280;27468;47.460;19.034;2023-07-30T02:12:49;99841.09;;;21.79;69.43
41800;BME280;27468;47.460;19.034;2023-07-30T02:15:14;99883.16;;;22.02;69.21
41800;BME280;27468;47.460;19.034;2023-07-30T02:17:40;99867.00;;;21.91;69.53
41800;BME280;27468;47.460;19.034;2023-07-30T02:20:06;99839.41;;;21.65;69.49
41800;BME280;27468;47.460;19.034;2023-07-30T02:22:31;99883.47;;;21.97;69.67
41800;BME280;27468;47.460;19.034;2023-07-30T02:24:57;99821.16;;;21.46;70.15
41800;BME280;27468;47.460;19.034;2023-07-30T02:27:22;99896.53;;;21.91;69.76
41800;BME280;27468;47.460;19.034;2023-07-30T02:29:48;99886.88;;;21.88;69.61
41800;BME280;27468;47.460;19.034;2023-07-30T02:32:13;99891.91;;;21.93;69.39
41800;BME280;27468;47.460;19.034;2023-07-30T02:34:39;99880.94;;;21.72;69.57
41800;BME280;27468;47.460;19.034;2023-07-30T02:37:04;99860.69;;;21.55;70.08
41800;BME280;27468;47.460;19.034;2023-07-30T02:39:30;99881.25;;;21.67;70.13
41800;BME280;27468;47.460;19.034;2023-07-30T02:41:55;99909.03;;;21.79;69.65
41800;BME280;27468;47.460;19.034;2023-07-30T02:44:20;99855.25;;;21.44;70.46
41800;BME280;27468;47.460;19.034;2023-07-30T02:46:46;99893.81;;;21.67;70.21
41800;BME280;27468;47.460;19.034;2023-07-30T02:49:11;99907.66;;;21.73;70.28
41800;BME280;27468;47.460;19.034;2023-07-30T02:51:37;99868.00;;;21.53;70.23
41800;BME280;27468;47.460;19.034;2023-07-30T02:54:06;99838.75;;;21.37;70.46
41800;BME280;27468;47.460;19.034;2023-07-30T02:56:32;99873.81;;;21.47;71.27
41800;BME280;27468;47.460;19.034;2023-07-30T02:58:58;99857.53;;;21.37;71.67
41800;BME280;27468;47.460;19.034;2023-07-30T03:01:25;99852.97;;;21.27;71.08
41800;BME280;27468;47.460;19.034;2023-07-30T03:03:51;99857.38;;;21.28;71.69
41800;BME280;27468;47.460;19.034;2023-07-30T03:06:16;99856.00;;;21.22;71.90
41800;BME280;27468;47.460;19.034;2023-07-30T03:08:45;99902.13;;;21.51;72.17
41800;BME280;27468;47.460;19.034;2023-07-30T03:11:10;99896.97;;;21.48;72.07
41800;BME280;27468;47.460;19.034;2023-07-30T03:13:36;99891.94;;;21.43;71.97
41800;BME280;27468;47.460;19.034;2023-07-30T03:16:02;99866.78;;;21.33;71.99
41800;BME280;27468;47.460;19.034;2023-07-30T03:18:27;99852.44;;;21.22;71.71
41800;BME280;27468;47.460;19.034;2023-07-30T03:20:58;99890.03;;;21.46;71.39
41800;BME280;27468;47.460;19.034;2023-07-30T03:23:25;99868.03;;;21.40;70.46
41800;BME280;27468;47.460;19.034;2023-07-30T03:25:50;99906.75;;;21.49;70.84
41800;BME280;27468;47.460;19.034;2023-07-30T03:28:15;99905.88;;;21.49;71.59
41800;BME280;27468;47.460;19.034;2023-07-30T03:30:41;99841.16;;;21.17;71.23
41800;BME280;27468;47.460;19.034;2023-07-30T03:33:06;99889.56;;;21.52;70.71
41800;BME280;27468;47.460;19.034;2023-07-30T03:35:32;99869.00;;;21.39;70.09
41800;BME280;27468;47.460;19.034;2023-07-30T03:37:57;99860.00;;;21.40;69.69
41800;BME280;27468;47.460;19.034;2023-07-30T03:40:22;99899.75;;;21.59;68.28
41800;BME280;27468;47.460;19.034;2023-07-30T03:42:49;99808.88;;;21.18;68.55
41800;BME280;27468;47.460;19.034;2023-07-30T03:45:14;99912.22;;;21.84;68.38
41800;BME280;27468;47.460;19.034;2023-07-30T03:47:39;99846.53;;;21.53;68.41
41800;BME280;27468;47.460;19.034;2023-07-30T03:50:05;99890.53;;;21.87;68.09
41800;BME280;27468;47.460;19.034;2023-07-30T03:52:31;99849.22;;;21.53;69.08
41800;BME280;27468;47.460;19.034;2023-07-30T03:54:56;99882.75;;;21.71;70.01
41800;BME280;27468;47.460;19.034;2023-07-30T03:57:21;99846.84;;;21.61;69.40
41800;BME280;27468;47.460;19.034;2023-07-30T03:59:47;99906.66;;;21.98;68.78
41800;BME280;27468;47.460;19.034;2023-07-30T04:02:12;99917.09;;;22.03;68.61
41800;BME280;27468;47.460;19.034;2023-07-30T04:04:43;99914.31;;;22.04;68.44
41800;BME280;27468;47.460;19.034;2023-07-30T04:07:10;99890.09;;;21.93;68.77
41800;BME280;27468;47.460;19.034;2023-07-30T04:09:36;99880.44;;;21.91;68.48
41800;BME280;27468;47.460;19.034;2023-07-30T04:12:01;99879.22;;;21.95;68.72
41800;BME280;27468;47.460;19.034;2023-07-30T04:14:27;99892.72;;;22.06;68.78
41800;BME280;27468;47.460;19.034;2023-07-30T04:16:52;99928.06;;;22.24;69.34
41800;BME280;27468;47.460;19.034;2023-07-30T04:19:17;99938.91;;;22.22;69.84
41800;BME280;27468;47.460;19.034;2023-07-30T04:21:43;99897.44;;;22.02;70.55
41800;BME280;27468;47.460;19.034;2023-07-30T04:24:08;99904.19;;;22.08;70.17
41800;BME280;27468;47.460;19.034;2023-07-30T04:26:34;99935.16;;;22.25;70.23
41800;BME280;27468;47.460;19.034;2023-07-30T04:28:59;99870.78;;;21.88;70.70
41800;BME280;27468;47.460;19.034;2023-07-30T04:31:24;99935.72;;;22.17;71.40
41800;BME280;27468;47.460;19.034;2023-07-30T04:33:50;99939.25;;;22.18;70.96
41800;BME280;27468;47.460;19.034;2023-07-30T04:36:15;99894.75;;;22.02;71.23
41800;BME280;27468;47.460;19.034;2023-07-30T04:38:40;99925.72;;;22.19;70.26
41800;BME280;27468;47.460;19.034;2023-07-30T04:41:06;99901.38;;;22.10;70.32
41800;BME280;27468;47.460;19.034;2023-07-30T04:43:32;99900.81;;;22.17;70.28
41800;BME280;27468;47.460;19.034;2023-07-30T04:45:57;99932.78;;;22.44;69.86
41800;BME280;27468;47.460;19.034;2023-07-30T04:48:23;99936.47;;;22.54;70.38
41800;BME280;27468;47.460;19.034;2023-07-30T04:50:48;99926.22;;;22.59;70.08
41800;BME280;27468;47.460;19.034;2023-07-30T04:53:13;99933.59;;;22.68;69.69
41800;BME280;27468;47.460;19.034;2023-07-30T04:55:39;99900.94;;;22.62;69.57
41800;BME280;27468;47.460;19.034;2023-07-30T04:58:04;99894.38;;;22.66;68.98
41800;BME280;27468;47.460;19.034;2023-07-30T05:00:30;99932.69;;;22.92;68.88
41800;BME280;27468;47.460;19.034;2023-07-30T05:02:55;99948.59;;;22.95;68.38
41800;BME280;27468;47.460;19.034;2023-07-30T05:05:20;99913.22;;;22.77;69.00
41800;BME280;27468;47.460;19.034;2023-07-30T05:07:46;99928.31;;;23.02;69.01
41800;BME280;27468;47.460;19.034;2023-07-30T05:10:11;99949.34;;;23.19;68.88
41800;BME280;27468;47.460;19.034;2023-07-30T05:12:37;99907.53;;;22.93;69.37
41800;BME280;27468;47.460;19.034;2023-07-30T05:15:03;99927.44;;;23.13;68.41
41800;BME280;27468;47.460;19.034;2023-07-30T05:17:29;99899.84;;;22.99;68.74
41800;BME280;27468;47.460;19.034;2023-07-30T05:19:54;99941.25;;;23.19;69.05
41800;BME280;27468;47.460;19.034;2023-07-30T05:22:19;99867.19;;;22.82;69.42
41800;BME280;27468;47.460;19.034;2023-07-30T05:24:45;99945.31;;;23.36;69.12
41800;BME280;27468;47.460;19.034;2023-07-30T05:27:10;99899.94;;;23.20;68.89
41800;BME280;27468;47.460;19.034;2023-07-30T05:29:36;99941.03;;;23.45;68.70
41800;BME280;27468;47.460;19.034;2023-07-30T05:32:01;99937.38;;;23.46;68.63
41800;BME280;27468;47.460;19.034;2023-07-30T05:34:26;99912.53;;;23.42;68.31
41800;BME280;27468;47.460;19.034;2023-07-30T05:36:52;99914.38;;;23.42;67.81
41800;BME280;27468;47.460;19.034;2023-07-30T05:39:17;99927.50;;;23.57;68.11
41800;BME280;27468;47.460;19.034;2023-07-30T05:41:43;99911.19;;;23.48;67.65
41800;BME280;27468;47.460;19.034;2023-07-30T05:44:08;99897.50;;;23.39;66.84
41800;BME280;27468;47.460;19.034;2023-07-30T05:46:33;99920.38;;;23.45;65.74
41800;BME280;27468;47.460;19.034;2023-07-30T05:48:59;99936.66;;;23.55;67.04
41800;BME280;27468;47.460;19.034;2023-07-30T05:51:25;99870.72;;;23.27;66.88
41800;BME280;27468;47.460;19.034;2023-07-30T05:53:50;99946.16;;;23.70;66.41
41800;BME280;27468;47.460;19.034;2023-07-30T05:56:16;99912.81;;;23.61;66.31
41800;BME280;27468;47.460;19.034;2023-07-30T05:58:43;99922.66;;;23.83;67.14
41800;BME280;27468;47.460;19.034;2023-07-30T06:01:09;99944.53;;;24.01;67.43
41800;BME280;27468;47.460;19.034;2023-07-30T06:03:34;99882.59;;;23.58;66.21
41800;BME280;27468;47.460;19.034;2023-07-30T06:06:01;99912.00;;;23.82;66.11
41800;BME280;27468;47.460;19.034;2023-07-30T06:08:27;99909.41;;;23.91;66.19
41800;BME280;27468;47.460;19.034;2023-07-30T06:10:52;99905.00;;;23.90;66.05
41800;BME280;27468;47.460;19.034;2023-07-30T06:13:17;99905.09;;;24.00;65.72
41800;BME280;27468;47.460;19.034;2023-07-30T06:15:43;99949.44;;;24.39;65.25
41800;BME280;27468;47.460;19.034;2023-07-30T06:18:09;99934.63;;;24.33;65.90
41800;BME280;27468;47.460;19.034;2023-07-30T06:20:34;99901.63;;;24.20;65.26
41800;BME280;27468;47.460;19.034;2023-07-30T06:23:00;99960.34;;;24.38;63.90
41800;BME280;27468;47.460;19.034;2023-07-30T06:25:25;99943.53;;;24.45;63.57
41800;BME280;27468;47.460;19.034;2023-07-30T06:27:51;99959.13;;;24.62;62.74
41800;BME280;27468;47.460;19.034;2023-07-30T06:30:16;99919.75;;;24.50;63.02
41800;BME280;27468;47.460;19.034;2023-07-30T06:32:42;99942.91;;;24.74;63.77
41800;BME280;27468;47.460;19.034;2023-07-30T06:35:07;99948.06;;;24.86;63.78
41800;BME280;27468;47.460;19.034;2023-07-30T06:37:33;99880.56;;;24.46;63.57
41800;BME280;27468;47.460;19.034;2023-07-30T06:39:59;99940.31;;;24.93;62.51
41800;BME280;27468;47.460;19.034;2023-07-30T06:42:24;99946.13;;;25.09;61.29
41800;BME280;27468;47.460;19.034;2023-07-30T06:44:50;99914.16;;;25.05;61.11
41800;BME280;27468;47.460;19.034;2023-07-30T06:47:15;99946.53;;;25.35;59.95
41800;BME280;27468;47.460;19.034;2023-07-30T06:49:41;99965.22;;;25.57;58.50
41800;BME280;27468;47.460;19.034;2023-07-30T06:52:06;99943.19;;;25.52;57.71
41800;BME280;27468;47.460;19.034;2023-07-30T06:54:32;99950.09;;;25.66;57.47
41800;BME280;27468;47.460;19.034;2023-07-30T06:56:57;99950.53;;;25.71;57.32
41800;BME280;27468;47.460;19.034;2023-07-30T06:59:22;99898.84;;;25.45;57.16
41800;BME280;27468;47.460;19.034;2023-07-30T07:01:48;99907.09;;;25.53;56.96
41800;BME280;27468;47.460;19.034;2023-07-30T07:04:13;99934.91;;;25.75;56.93
41800;BME280;27468;47.460;19.034;2023-07-30T07:06:39;99930.13;;;25.57;56.90
41800;BME280;27468;47.460;19.034;2023-07-30T07:09:04;99911.59;;;25.33;57.48
41800;BME280;27468;47.460;19.034;2023-07-30T07:11:29;99939.97;;;25.28;58.93
41800;BME280;27468;47.460;19.034;2023-07-30T07:13:55;99978.94;;;25.35;59.40
41800;BME280;27468;47.460;19.034;2023-07-30T07:16:20;99942.97;;;25.04;59.86
41800;BME280;27468;47.460;19.034;2023-07-30T07:18:46;99978.41;;;25.20;60.72
41800;BME280;27468;47.460;19.034;2023-07-30T07:21:14;99986.31;;;25.12;61.32
41800;BME280;27468;47.460;19.034;2023-07-30T07:23:39;99962.88;;;24.92;63.63
41800;BME280;27468;47.460;19.034;2023-07-30T07:26:04;99972.34;;;24.86;67.50
41800;BME280;27468;47.460;19.034;2023-07-30T07:28:30;99954.59;;;24.63;68.00
41800;BME280;27468;47.460;19.034;2023-07-30T07:30:55;100007.13;;;24.68;69.37
41800;BME280;27468;47.460;19.034;2023-07-30T07:33:21;100009.22;;;24.65;68.59
41800;BME280;27468;47.460;19.034;2023-07-30T07:35:47;100007.19;;;24.57;67.37
41800;BME280;27468;47.460;19.034;2023-07-30T07:38:12;99999.84;;;24.48;67.66
41800;BME280;27468;47.460;19.034;2023-07-30T07:40:38;100007.56;;;24.53;68.07
41800;BME280;27468;47.460;19.034;2023-07-30T07:43:08;99959.91;;;24.21;69.16
41800;BME280;27468;47.460;19.034;2023-07-30T07:45:33;100002.47;;;24.39;68.57
41800;BME280;27468;47.460;19.034;2023-07-30T07:47:59;100014.75;;;24.20;67.97
41800;BME280;27468;47.460;19.034;2023-07-30T07:50:24;99963.50;;;23.88;67.89
41800;BME280;27468;47.460;19.034;2023-07-30T07:52:50;99964.13;;;23.92;67.48
41800;BME280;27468;47.460;19.034;2023-07-30T07:55:16;100019.66;;;24.15;67.52
41800;BME280;27468;47.460;19.034;2023-07-30T07:57:42;99997.91;;;23.96;66.79
41800;BME280;27468;47.460;19.034;2023-07-30T08:00:07;99970.75;;;23.77;66.60
41800;BME280;27468;47.460;19.034;2023-07-30T08:02:34;100021.53;;;23.92;68.26
41800;BME280;27468;47.460;19.034;2023-07-30T08:04:59;100019.31;;;23.97;67.69
41800;BME280;27468;47.460;19.034;2023-07-30T08:07:25;100016.25;;;23.80;68.66
41800;BME280;27468;47.460;19.034;2023-07-30T08:09:50;100011.38;;;23.74;70.53
41800;BME280;27468;47.460;19.034;2023-07-30T08:12:16;100003.16;;;23.53;71.42
41800;BME280;27468;47.460;19.034;2023-07-30T08:14:42;100019.81;;;23.80;71.27
41800;BME280;27468;47.460;19.034;2023-07-30T08:17:07;100044.78;;;23.82;71.71
41800;BME280;27468;47.460;19.034;2023-07-30T08:19:33;100047.75;;;23.68;72.67
41800;BME280;27468;47.460;19.034;2023-07-30T08:21:58;100002.97;;;23.56;72.43
41800;BME280;27468;47.460;19.034;2023-07-30T08:24:24;100054.81;;;23.91;71.36
41800;BME280;27468;47.460;19.034;2023-07-30T08:26:49;100056.53;;;23.81;72.81
41800;BME280;27468;47.460;19.034;2023-07-30T08:29:15;100046.50;;;23.61;73.76
41800;BME280;27468;47.460;19.034;2023-07-30T08:31:41;100016.34;;;23.33;74.23
41800;BME280;27468;47.460;19.034;2023-07-30T08:34:06;100072.78;;;23.68;73.92
41800;BME280;27468;47.460;19.034;2023-07-30T08:36:32;100070.72;;;23.72;72.62
41800;BME280;27468;47.460;19.034;2023-07-30T08:38:57;100033.97;;;23.49;71.62
41800;BME280;27468;47.460;19.034;2023-07-30T08:41:23;100014.91;;;23.41;71.79
41800;BME280;27468;47.460;19.034;2023-07-30T08:43:48;100054.59;;;23.61;71.22
41800;BME280;27468;47.460;19.034;2023-07-30T08:46:15;100047.25;;;23.63;74.53
41800;BME280;27468;47.460;19.034;2023-07-30T08:48:41;100061.91;;;23.70;73.88
41800;BME280;27468;47.460;19.034;2023-07-30T08:51:06;100056.50;;;23.70;74.93
41800;BME280;27468;47.460;19.034;2023-07-30T08:53:34;100046.72;;;23.69;76.85
41800;BME280;27468;47.460;19.034;2023-07-30T08:56:00;99979.91;;;23.29;80.71
41800;BME280;27468;47.460;19.034;2023-07-30T08:58:27;100018.97;;;23.57;78.81
41800;BME280;27468;47.460;19.034;2023-07-30T09:00:55;100052.47;;;23.76;76.14
41800;BME280;27468;47.460;19.034;2023-07-30T09:03:23;100020.28;;;23.52;79.42
41800;BME280;27468;47.460;19.034;2023-07-30T09:05:49;100046.88;;;23.67;77.43
41800;BME280;27468;47.460;19.034;2023-07-30T09:08:15;100024.13;;;23.60;76.27
41800;BME280;27468;47.460;19.034;2023-07-30T09:10:42;100049.06;;;23.74;79.40
41800;BME280;27468;47.460;19.034;2023-07-30T09:13:08;100018.56;;;23.51;80.20
41800;BME280;27468;47.460;19.034;2023-07-30T09:15:37;100022.97;;;23.52;80.84
41800;BME280;27468;47.460;19.034;2023-07-30T09:18:04;100024.69;;;23.53;81.66
41800;BME280;27468;47.460;19.034;2023-07-30T09:20:40;100061.66;;;23.73;82.76
41800;BME280;27468;47.460;19.034;2023-07-30T09:23:07;100018.38;;;23.54;83.58
41800;BME280;27468;47.460;19.034;2023-07-30T09:25:33;100006.09;;;23.50;83.85
41800;BME280;27468;47.460;19.034;2023-07-30T09:27:59;100047.22;;;23.74;82.62
41800;BME280;27468;47.460;19.034;2023-07-30T09:30:25;100024.34;;;23.68;82.11
41800;BME280;27468;47.460;19.034;2023-07-30T09:32:53;100049.31;;;23.82;81.53
41800;BME280;27468;47.460;19.034;2023-07-30T09:35:19;100043.31;;;23.89;80.69
41800;BME280;27468;47.460;19.034;2023-07-30T09:37:45;100014.31;;;23.70;80.21
41800;BME280;27468;47.460;19.034;2023-07-30T09:40:12;100052.13;;;23.91;79.02
41800;BME280;27468;47.460;19.034;2023-07-30T09:42:41;100017.13;;;23.80;77.52
41800;BME280;27468;47.460;19.034;2023-07-30T09:45:08;100057.25;;;23.94;78.64
41800;BME280;27468;47.460;19.034;2023-07-30T09:47:46;100031.91;;;23.97;78.33
41800;BME280;27468;47.460;19.034;2023-07-30T09:50:11;100022.00;;;23.97;79.23
41800;BME280;27468;47.460;19.034;2023-07-30T09:52:37;99992.16;;;23.89;77.94
41800;BME280;27468;47.460;19.034;2023-07-30T09:55:06;100021.03;;;23.98;76.71
41800;BME280;27468;47.460;19.034;2023-07-30T09:57:32;100051.97;;;24.15;77.43
41800;BME280;27468;47.460;19.034;2023-07-30T09:59:58;99983.09;;;23.79;78.91
41800;BME280;27468;47.460;19.034;2023-07-30T10:02:24;100054.53;;;24.17;79.90
41800;BME280;27468;47.460;19.034;2023-07-30T10:04:53;100008.78;;;23.83;81.13
41800;BME280;27468;47.460;19.034;2023-07-30T10:07:23;100050.66;;;23.98;80.48
41800;BME280;27468;47.460;19.034;2023-07-30T10:09:51;100015.16;;;23.82;80.65
41800;BME280;27468;47.460;19.034;2023-07-30T10:12:27;100006.09;;;23.72;82.09
41800;BME280;27468;47.460;19.034;2023-07-30T10:14:53;100046.97;;;23.99;80.77
41800;BME280;27468;47.460;19.034;2023-07-30T10:17:19;100048.69;;;24.00;80.48
41800;BME280;27468;47.460;19.034;2023-07-30T10:19:49;100060.44;;;24.11;82.06
41800;BME280;27468;47.460;19.034;2023-07-30T10:25:00;100023.59;;;24.00;83.64
41800;BME280;27468;47.460;19.034;2023-07-30T10:27:27;100013.19;;;23.95;83.58
41800;BME280;27468;47.460;19.034;2023-07-30T10:30:09;100061.41;;;24.21;82.52
41800;BME280;27468;47.460;19.034;2023-07-30T10:32:42;100036.19;;;24.11;82.77
41800;BME280;27468;47.460;19.034;2023-07-30T10:35:45;100049.91;;;24.19;83.86
41800;BME280;27468;47.460;19.034;2023-07-30T10:38:21;100031.53;;;24.13;83.80
41800;BME280;27468;47.460;19.034;2023-07-30T10:41:04;100045.00;;;24.24;82.62
41800;BME280;27468;47.460;19.034;2023-07-30T10:43:34;100014.31;;;23.93;81.27
41800;BME280;27468;47.460;19.034;2023-07-30T10:46:00;100015.41;;;23.90;83.27
41800;BME280;27468;47.460;19.034;2023-07-30T10:50:58;100029.59;;;23.92;84.93
41800;BME280;27468;47.460;19.034;2023-07-30T10:53:24;100001.09;;;23.90;85.72
41800;BME280;27468;47.460;19.034;2023-07-30T10:55:49;99975.63;;;23.83;86.54
41800;BME280;27468;47.460;19.034;2023-07-30T10:58:18;100039.97;;;24.30;85.66
41800;BME280;27468;47.460;19.034;2023-07-30T11:00:43;100024.03;;;24.27;85.58
41800;BME280;27468;47.460;19.034;2023-07-30T11:03:09;100022.56;;;24.34;84.14
41800;BME280;27468;47.460;19.034;2023-07-30T11:05:38;99993.31;;;24.19;83.76
41800;BME280;27468;47.460;19.034;2023-07-30T11:08:03;100036.63;;;24.38;83.54
41800;BME280;27468;47.460;19.034;2023-07-30T11:10:29;100034.75;;;24.50;83.25
41800;BME280;27468;47.460;19.034;2023-07-30T11:12:54;100029.97;;;24.53;82.25
41800;BME280;27468;47.460;19.034;2023-07-30T11:15:19;99937.03;;;24.04;80.99
41800;BME280;27468;47.460;19.034;2023-07-30T11:20:24;100027.75;;;24.58;80.25
41800;BME280;27468;47.460;19.034;2023-07-30T11:22:52;100023.22;;;24.59;80.08
41800;BME280;27468;47.460;19.034;2023-07-30T11:25:18;100021.97;;;24.63;80.27
41800;BME280;27468;47.460;19.034;2023-07-30T11:27:48;100027.84;;;24.68;80.78
41800;BME280;27468;47.460;19.034;2023-07-30T11:30:14;100025.41;;;24.65;80.98
41800;BME280;27468;47.460;19.034;2023-07-30T11:32:41;99996.47;;;24.35;79.65
41800;BME280;27468;47.460;19.034;2023-07-30T11:35:07;99996.00;;;24.30;79.08
41800;BME280;27468;47.460;19.034;2023-07-30T11:37:33;99991.63;;;24.18;79.09
41800;BME280;27468;47.460;19.034;2023-07-30T11:39:59;100027.47;;;24.29;78.63
41800;BME280;27468;47.460;19.034;2023-07-30T11:42:25;100024.19;;;24.26;77.70
41800;BME280;27468;47.460;19.034;2023-07-30T11:44:51;100028.09;;;24.22;77.53
41800;BME280;27468;47.460;19.034;2023-07-30T11:47:23;99995.06;;;23.97;76.53
41800;BME280;27468;47.460;19.034;2023-07-30T11:49:55;100037.16;;;24.21;76.47
41800;BME280;27468;47.460;19.034;2023-07-30T11:52:20;99997.53;;;23.89;76.38
41800;BME280;27468;47.460;19.034;2023-07-30T11:54:47;100039.75;;;24.11;77.08
41800;BME280;27468;47.460;19.034;2023-07-30T11:57:12;100029.59;;;24.03;76.52
41800;BME280;27468;47.460;19.034;2023-07-30T11:59:38;100033.63;;;24.09;75.77
41800;BME280;27468;47.460;19.034;2023-07-30T12:02:04;100041.44;;;24.12;76.69
41800;BME280;27468;47.460;19.034;2023-07-30T12:04:31;100041.09;;;24.17;77.13
41800;BME280;27468;47.460;19.034;2023-07-30T12:06:56;99991.28;;;23.89;78.11
41800;BME280;27468;47.460;19.034;2023-07-30T12:09:23;100042.78;;;24.18;78.10
41800;BME280;27468;47.460;19.034;2023-07-30T12:14:22;100035.34;;;24.10;75.77
41800;BME280;27468;47.460;19.034;2023-07-30T12:16:47;100018.19;;;24.11;74.84
41800;BME280;27468;47.460;19.034;2023-07-30T12:19:13;99985.28;;;23.96;75.17
41800;BME280;27468;47.460;19.034;2023-07-30T12:21:39;100017.09;;;24.02;74.66
41800;BME280;27468;47.460;19.034;2023-07-30T12:24:04;100020.66;;;24.03;75.78
41800;BME280;27468;47.460;19.034;2023-07-30T12:26:30;99992.03;;;23.91;75.39
41800;BME280;27468;47.460;19.034;2023-07-30T12:28:56;99998.50;;;23.88;75.18
41800;BME280;27468;47.460;19.034;2023-07-30T12:31:21;99987.88;;;23.87;75.78
41800;BME280;27468;47.460;19.034;2023-07-30T12:33:46;99998.97;;;24.04;75.39
41800;BME280;27468;47.460;19.034;2023-07-30T12:36:12;100020.75;;;24.13;75.73
41800;BME280;27468;47.460;19.034;2023-07-30T12:38:37;100003.13;;;24.09;74.57
41800;BME280;27468;47.460;19.034;2023-07-30T12:41:03;99967.19;;;23.76;73.07
41800;BME280;27468;47.460;19.034;2023-07-30T12:43:28;99960.72;;;23.79;72.71
41800;BME280;27468;47.460;19.034;2023-07-30T12:45:53;99977.34;;;23.95;71.93
41800;BME280;27468;47.460;19.034;2023-07-30T12:48:19;99992.13;;;24.12;71.02
41800;BME280;27468;47.460;19.034;2023-07-30T12:50:45;99996.09;;;24.40;69.56
41800;BME280;27468;47.460;19.034;2023-07-30T12:53:10;99940.22;;;24.10;68.38